createdAt,value
2022-09-27T00:02:27.853Z,10.08
2022-09-27T00:06:32.961Z,10.08
2022-09-27T00:10:37.294Z,10.10
2022-09-27T00:14:40.041Z,10.06
2022-09-27T00:18:43.168Z,10.04
2022-09-27T00:22:46.163Z,10.07
2022-09-27T00:26:50.785Z,10.07
2022-09-27T00:30:54.265Z,10.06
2022-09-27T00:34:57.162Z,10.10
2022-09-27T00:39:01.003Z,10.11
2022-09-27T00:43:12.687Z,10.09
2022-09-27T00:47:23.575Z,10.11
2022-09-27T00:51:27.276Z,10.12
2022-09-27T00:55:33.906Z,10.11
2022-09-27T00:59:42.138Z,10.11
2022-09-27T01:03:49.619Z,10.10
2022-09-27T01:07:56.543Z,10.09
2022-09-27T01:12:08.148Z,10.09
2022-09-27T01:16:17.852Z,10.09
2022-09-27T01:20:48.420Z,10.09
2022-09-27T01:25:04.533Z,10.08
2022-09-27T01:29:14.018Z,10.06
2022-09-27T01:33:33.849Z,10.06
2022-09-27T01:37:40.200Z,10.04
2022-09-27T01:41:50.626Z,10.04
2022-09-27T01:45:59.074Z,10.02
2022-09-27T01:50:07.233Z,10.07
2022-09-27T01:54:13.418Z,9.99
2022-09-27T01:58:21.791Z,9.90
2022-09-27T02:02:28.344Z,9.90
2022-09-27T02:06:36.451Z,9.83
2022-09-27T02:10:42.366Z,9.76
2022-09-27T02:14:51.392Z,9.70
2022-09-27T02:19:07.513Z,9.68
2022-09-27T02:23:19.249Z,9.65
2022-09-27T02:27:25.514Z,9.57
2022-09-27T02:31:28.381Z,9.55
2022-09-27T02:35:34.239Z,9.54
2022-09-27T02:39:38.544Z,9.51
2022-09-27T02:43:41.344Z,9.51
2022-09-27T02:48:00.922Z,9.51
2022-09-27T02:52:14.645Z,9.51
2022-09-27T02:56:27.149Z,9.52
2022-09-27T03:00:37.109Z,9.53
2022-09-27T03:04:45.717Z,9.50
2022-09-27T03:08:49.062Z,9.47
2022-09-27T03:12:53.506Z,9.44
2022-09-27T03:16:56.228Z,9.40
2022-09-27T03:20:59.145Z,9.38
2022-09-27T03:25:02.169Z,9.37
2022-09-27T03:29:06.396Z,9.34
2022-09-27T03:33:10.253Z,9.36
2022-09-27T03:37:13.052Z,9.35
2022-09-27T03:41:15.982Z,9.28
2022-09-27T03:45:20.035Z,9.19
2022-09-27T03:49:22.865Z,9.13
2022-09-27T03:53:25.813Z,9.08
2022-09-27T03:57:29.283Z,9.07
2022-09-27T04:01:35.378Z,9.11
2022-09-27T04:05:38.164Z,9.12
2022-09-27T04:09:44.706Z,9.09
2022-09-27T04:13:48.898Z,9.06
2022-09-27T04:17:53.130Z,9.04
2022-09-27T04:21:55.960Z,9.02
2022-09-27T04:25:58.843Z,9.01
2022-09-27T04:30:01.544Z,8.99
2022-09-27T04:34:05.983Z,8.98
2022-09-27T04:38:08.719Z,9.02
2022-09-27T04:42:11.627Z,9.01
2022-09-27T04:46:15.017Z,9.01
2022-09-27T04:50:20.365Z,8.94
2022-09-27T04:54:23.641Z,8.85
2022-09-27T04:58:27.313Z,8.86
2022-09-27T05:02:31.428Z,8.85
2022-09-27T05:06:35.723Z,8.85
2022-09-27T05:10:38.564Z,8.94
2022-09-27T05:14:41.366Z,9.02
2022-09-27T05:18:44.089Z,9.01
2022-09-27T05:22:48.199Z,9.00
2022-09-27T05:26:51.322Z,9.03
2022-09-27T05:30:54.231Z,9.02
2022-09-27T05:34:57.172Z,8.99
2022-09-27T05:39:01.173Z,9.03
2022-09-27T05:43:03.865Z,9.05
2022-09-27T05:47:06.931Z,9.07
2022-09-27T05:51:10.003Z,9.08
2022-09-27T05:55:15.198Z,9.10
2022-09-27T05:59:18.024Z,9.13
2022-09-27T06:03:21.122Z,9.11
2022-09-27T06:07:23.874Z,9.11
2022-09-27T06:11:27.943Z,9.09
2022-09-27T06:15:32.354Z,9.11
2022-09-27T06:19:35.808Z,9.12
2022-09-27T06:23:38.594Z,9.12
2022-09-27T06:27:42.622Z,9.08
2022-09-27T06:31:45.490Z,9.02
2022-09-27T06:35:50.117Z,9.01
2022-09-27T06:39:53.289Z,9.02
2022-09-27T06:43:57.349Z,9.00
2022-09-27T06:48:02.611Z,8.97
2022-09-27T06:52:06.217Z,8.92
2022-09-27T06:56:09.129Z,8.88
2022-09-27T07:00:27.707Z,8.88
2022-09-27T07:04:30.566Z,8.87
2022-09-27T07:08:36.110Z,8.93
2022-09-27T07:12:39.619Z,8.96
2022-09-27T07:16:43.904Z,9.06
2022-09-27T07:20:46.663Z,9.12
2022-09-27T07:24:49.381Z,9.24
2022-09-27T07:28:53.375Z,9.38
2022-09-27T07:33:00.042Z,9.50
2022-09-27T07:37:05.653Z,9.47
2022-09-27T07:41:09.214Z,9.54
2022-09-27T07:45:12.832Z,9.60
2022-09-27T07:49:17.083Z,9.71
2022-09-27T07:53:19.942Z,9.69
2022-09-27T07:57:23.905Z,9.87
2022-09-27T08:01:26.809Z,9.83
2022-09-27T08:05:31.108Z,9.97
2022-09-27T08:09:33.963Z,10.10
2022-09-27T08:13:37.830Z,10.14
2022-09-27T08:17:40.546Z,10.19
2022-09-27T08:21:44.800Z,10.29
2022-09-27T08:25:53.294Z,10.27
2022-09-27T08:29:56.351Z,10.46
2022-09-27T08:33:59.207Z,10.49
2022-09-27T08:38:06.105Z,10.64
2022-09-27T08:42:20.503Z,10.71
2022-09-27T08:46:34.581Z,10.92
2022-09-27T08:50:40.357Z,10.70
2022-09-27T08:54:46.130Z,10.91
2022-09-27T08:58:53.071Z,11.51
2022-09-27T09:02:56.535Z,12.18
2022-09-27T09:07:10.775Z,12.02
2022-09-27T09:11:44.057Z,11.72
2022-09-27T09:15:58.538Z,11.73
2022-09-27T09:20:17.596Z,11.60
2022-09-27T09:24:31.173Z,11.41
2022-09-27T09:28:48.505Z,10.82
2022-09-27T09:33:16.989Z,10.67
2022-09-27T09:37:24.818Z,10.63
2022-09-27T09:41:32.958Z,10.57
2022-09-27T09:45:42.974Z,10.52
2022-09-27T09:49:49.702Z,10.49
2022-09-27T09:53:57.477Z,10.32
2022-09-27T09:58:08.166Z,10.16
2022-09-27T10:02:26.635Z,10.34
2022-09-27T10:06:31.538Z,10.30
2022-09-27T10:10:35.591Z,10.32
2022-09-27T10:14:38.919Z,10.31
2022-09-27T10:18:49.045Z,10.32
2022-09-27T10:22:56.702Z,10.37
2022-09-27T10:27:01.518Z,10.40
2022-09-27T10:31:06.868Z,10.33
2022-09-27T10:35:35.465Z,10.32
2022-09-27T10:39:39.189Z,10.34
2022-09-27T10:43:42.099Z,10.42
2022-09-27T10:47:45.093Z,10.66
2022-09-27T10:51:52.408Z,10.93
2022-09-27T10:55:55.363Z,11.20
2022-09-27T11:00:02.345Z,11.33
2022-09-27T11:04:05.981Z,11.87
2022-09-27T11:08:26.807Z,11.75
2022-09-27T11:12:30.854Z,11.90
2022-09-27T11:16:52.367Z,11.63
2022-09-27T11:21:06.745Z,11.41
2022-09-27T11:25:20.958Z,12.22
2022-09-27T11:29:36.500Z,11.95
2022-09-27T11:34:08.655Z,11.74
2022-09-27T11:38:51.159Z,11.62
2022-09-27T11:43:04.623Z,10.77
2022-09-27T11:47:17.319Z,10.48
2022-09-27T11:51:31.081Z,10.60
2022-09-27T11:55:46.418Z,11.16
2022-09-27T12:00:06.896Z,10.95
2022-09-27T12:04:38.469Z,9.58
2022-09-27T12:08:51.507Z,9.61
2022-09-27T12:12:57.981Z,9.66
2022-09-27T12:17:05.755Z,9.89
2022-09-27T12:21:11.585Z,10.27
2022-09-27T12:25:20.802Z,10.58
2022-09-27T12:29:30.150Z,10.49
2022-09-27T12:33:41.947Z,10.41
2022-09-27T12:37:50.547Z,10.37
2022-09-27T12:42:02.058Z,10.12
2022-09-27T12:46:13.297Z,10.18
2022-09-27T12:50:28.249Z,10.34
2022-09-27T12:54:53.832Z,10.43
2022-09-27T12:59:13.454Z,10.79
2022-09-27T13:03:27.995Z,10.70
2022-09-27T13:07:47.914Z,10.50
2022-09-27T13:12:02.560Z,10.64
2022-09-27T13:16:06.133Z,10.79
2022-09-27T13:20:39.325Z,10.90
2022-09-27T13:24:48.822Z,11.45
2022-09-27T13:29:02.262Z,12.07
2022-09-27T13:33:45.357Z,11.75
2022-09-27T13:37:57.043Z,12.32
2022-09-27T13:42:14.613Z,12.35
2022-09-27T13:46:20.821Z,11.61
2022-09-27T13:50:27.620Z,11.61
2022-09-27T13:54:50.734Z,11.50
2022-09-27T13:58:58.818Z,11.66
2022-09-27T14:03:04.417Z,11.53
2022-09-27T14:07:13.948Z,11.38
2022-09-27T14:11:23.181Z,11.34
2022-09-27T14:15:29.570Z,11.21
2022-09-27T14:19:32.494Z,11.20
2022-09-27T14:23:35.382Z,11.26
2022-09-27T14:27:39.762Z,11.27
2022-09-27T14:31:44.229Z,11.41
2022-09-27T14:36:08.312Z,11.41
2022-09-27T14:40:22.771Z,11.44
2022-09-27T14:44:28.232Z,11.36
2022-09-27T14:48:35.211Z,11.20
2022-09-27T14:52:40.734Z,11.08
2022-09-27T14:56:43.456Z,11.01
2022-09-27T15:00:49.562Z,10.60
2022-09-27T15:04:54.745Z,10.20
2022-09-27T15:08:58.993Z,10.08
2022-09-27T15:13:04.726Z,9.94
2022-09-27T15:17:08.132Z,9.85
2022-09-27T15:21:15.748Z,9.92
2022-09-27T15:25:24.166Z,10.01
2022-09-27T15:29:27.298Z,10.10
2022-09-27T15:33:32.688Z,10.24
2022-09-27T15:37:38.853Z,10.14
2022-09-27T15:42:03.189Z,10.25
2022-09-27T15:46:25.857Z,10.28
2022-09-27T15:50:39.881Z,10.35
2022-09-27T15:54:44.024Z,10.23
2022-09-27T15:58:46.819Z,9.94
2022-09-27T16:02:49.628Z,9.67
2022-09-27T16:06:52.470Z,9.62
2022-09-27T16:10:58.302Z,9.58
2022-09-27T16:15:00.985Z,9.57
2022-09-27T16:19:03.982Z,9.55
2022-09-27T16:23:07.288Z,9.57
2022-09-27T16:27:11.831Z,9.55
2022-09-27T16:31:17.284Z,9.54
2022-09-27T16:35:23.888Z,9.60
2022-09-27T16:39:27.238Z,9.59
2022-09-27T16:43:31.859Z,9.62
2022-09-27T16:47:35.511Z,9.63
2022-09-27T16:51:56.182Z,9.64
2022-09-27T16:56:00.392Z,9.65
2022-09-27T17:00:05.908Z,9.74
2022-09-27T17:04:08.716Z,9.74
2022-09-27T17:08:11.703Z,9.75
2022-09-27T17:12:15.180Z,9.68
2022-09-27T17:16:19.288Z,9.72
2022-09-27T17:20:22.189Z,9.75
2022-09-27T17:24:25.063Z,9.74
2022-09-27T17:28:29.721Z,9.70
2022-09-27T17:32:34.939Z,9.71
2022-09-27T17:36:39.561Z,9.68
2022-09-27T17:40:42.388Z,9.64
2022-09-27T17:44:46.575Z,9.63
2022-09-27T17:49:08.697Z,9.57
2022-09-27T17:53:11.313Z,9.57
2022-09-27T17:57:14.200Z,9.51
2022-09-27T18:01:18.685Z,9.44
2022-09-27T18:05:22.935Z,9.48
2022-09-27T18:09:25.621Z,9.50
2022-09-27T18:13:29.067Z,9.53
2022-09-27T18:17:31.981Z,9.50
2022-09-27T18:21:36.777Z,9.54
2022-09-27T18:25:40.377Z,9.51
2022-09-27T18:29:43.182Z,9.49
2022-09-27T18:33:47.046Z,9.51
2022-09-27T18:37:51.295Z,9.51
2022-09-27T18:41:55.675Z,9.55
2022-09-27T18:46:23.974Z,9.55
2022-09-27T18:50:24.429Z,9.57
2022-09-27T18:54:28.619Z,9.54
2022-09-27T18:58:32.239Z,9.51
2022-09-27T19:02:35.260Z,9.51
2022-09-27T19:06:38.781Z,9.53
2022-09-27T19:10:43.015Z,9.54
2022-09-27T19:14:45.922Z,9.50
2022-09-27T19:18:49.206Z,9.52
2022-09-27T19:22:51.879Z,9.42
2022-09-27T19:26:57.320Z,9.46
2022-09-27T19:31:00.005Z,9.42
2022-09-27T19:35:04.031Z,9.42
2022-09-27T19:39:06.721Z,9.47
2022-09-27T19:43:10.873Z,9.52
2022-09-27T19:47:13.579Z,9.53
2022-09-27T19:51:17.997Z,9.66
2022-09-27T19:55:20.940Z,9.66
2022-09-27T19:59:26.058Z,9.63
2022-09-27T20:03:30.191Z,9.58
2022-09-27T20:07:35.011Z,9.51
2022-09-27T20:11:37.886Z,9.40
2022-09-27T20:15:41.999Z,9.23
2022-09-27T20:19:45.036Z,9.11
2022-09-27T20:23:49.683Z,9.02
2022-09-27T20:27:52.567Z,8.96
2022-09-27T20:32:22.904Z,8.96
2022-09-27T20:36:21.795Z,8.89
2022-09-27T20:40:24.649Z,8.37
2022-09-27T20:44:27.495Z,8.25
2022-09-27T20:48:31.639Z,8.21
2022-09-27T20:52:34.421Z,8.23
2022-09-27T20:56:39.319Z,8.21
2022-09-27T21:00:42.295Z,8.33
2022-09-27T21:04:46.429Z,8.35
2022-09-27T21:08:49.269Z,8.35
2022-09-27T21:12:52.145Z,8.27
2022-09-27T21:16:55.388Z,8.20
2022-09-27T21:21:02.396Z,8.14
2022-09-27T21:25:06.004Z,8.02
2022-09-27T21:29:11.642Z,7.96
2022-09-27T21:33:14.518Z,7.91
2022-09-27T21:37:18.685Z,8.07
2022-09-27T21:41:21.712Z,8.07
2022-09-27T21:45:24.415Z,8.03
2022-09-27T21:49:27.252Z,8.12
2022-09-27T21:53:31.420Z,8.14
2022-09-27T21:57:34.269Z,8.18
2022-09-27T22:01:37.062Z,8.20
2022-09-27T22:05:45.355Z,8.24
2022-09-27T22:09:49.834Z,8.30
2022-09-27T22:13:52.698Z,8.35
2022-09-27T22:17:55.436Z,8.36
2022-09-27T22:21:58.218Z,8.41
2022-09-27T22:26:12.870Z,8.41
2022-09-27T22:30:15.714Z,8.41
2022-09-27T22:34:28.917Z,8.37
2022-09-27T22:38:32.589Z,8.33
2022-09-27T22:42:36.669Z,8.32
2022-09-27T22:46:40.516Z,8.32
2022-09-27T22:50:43.359Z,8.33
2022-09-27T22:54:46.166Z,8.33
2022-09-27T22:58:50.814Z,8.33
2022-09-27T23:02:55.146Z,8.29
2022-09-27T23:06:58.009Z,8.26
2022-09-27T23:11:05.107Z,8.24
2022-09-27T23:15:10.714Z,8.19
2022-09-27T23:19:15.155Z,8.13
2022-09-27T23:23:18.069Z,8.07
2022-09-27T23:27:38.454Z,8.04
2022-09-27T23:31:42.760Z,7.97
2022-09-27T23:35:46.134Z,7.94
2022-09-27T23:39:49.233Z,7.93
2022-09-27T23:43:53.369Z,7.93
2022-09-27T23:47:58.121Z,7.88
2022-09-27T23:52:01.578Z,7.90
2022-09-27T23:56:07.317Z,7.97
